Aeroporto :
LOGIN :

Iscrizione | Disclaimer

   EN    FR    IT 

 










Sommario :    VFR   VFR Marginale   IFR   IFR Intensivo   IFR Molto Intensivo
Visibilità : 
Base nubi : 
>= 8 km
>= 3000ft
5 / 8 km
1000 / 3000 ft
1500m / 5 km
500 / 1000 ft
800 / 1500m
200 / 500 ft
< 800m
< 200 ft
Simboli :   Temporali  Nebbia  Neve Forte  Precipitazioni Forti  Vento > 20 kt
SIGMETs :   Varie  Temporali  Ghiacco  Turbolenza  Onda orograficha  Ceneri Vulcaniche







- Altitudine del aeroporto : 39 ft
- Codice IATA : ANR


EBAW - Anvers / Antwerpen Deurne

ULTIMO METAR :
  • 121550Z 22007KT 6000 FEW006 02/00 Q1011 NOSIG

METARs OBSOLETI :
  • 121520Z 23006KT 6000 FEW006 02/00 Q1011 NOSIG
  • 121450Z 23007KT 210V270 6000 FEW006 02/01 Q1011 NOSIG
  • 121420Z 23007KT 6000 FEW005 02/00 Q1010 NOSIG
  • 121350Z 23008KT 200V260 4500 BR BKN005 BKN013 02/M00 Q1010 RESHSN RESHRA BECMG 8000 NSW FEW006 BKN016
  • 121320Z 23007KT 8000 BKN005 BKN013 01/00 Q1010 RESHSN RESHRA BECMG FEW006 BKN016
  • 121250Z 25010KT 2500 SHSNRA FEW003 BKN004 01/00 Q1010 BECMG 9999 NSW FEW006

TAF TAF EBAW
Valido dal 12 a 15 ore il 13 a 00 ore UTC


121410Z 1215/1224 22007KT 8000 SCT006 BKN016
TEMPO 1215/1216 4000 -SHSNRA BKN005
Nessun NOTAM noto per questo aeroporto.



MetMap, La meteo Aeronautica in un colpo d'occhio ! - Copyright ORBIFLY Dicembre 2007 - Disclaimer

ORBIFLY MET'MAP TEAM :

Programmazione e sviluppo : Alexandra Zaïnal
Concezione e sviluppo : Baudouin d'Aumeries
Co-Programmazione e sviluppo : Marc-Olivier Méhu
Supporto tecnico e logistico : Manuel Goepfert
Aiuto per la traduzione : Arnaldo La Scala

Contatto : metmap@orbifly.com




FONTI E CREDITI :

   NOAA